createdAt,value
2019-05-07T00:01:58.366Z,6.60
2019-05-07T00:04:26.827Z,6.50
2019-05-07T00:06:55.287Z,6.60
2019-05-07T00:09:23.983Z,6.60
2019-05-07T00:11:53.362Z,6.50
2019-05-07T00:14:23.138Z,6.60
2019-05-07T00:16:53.507Z,6.50
2019-05-07T00:19:23.060Z,6.50
2019-05-07T00:21:52.798Z,6.50
2019-05-07T00:24:22.360Z,6.50
2019-05-07T00:26:53.054Z,6.50
2019-05-07T00:29:22.372Z,6.40
2019-05-07T00:31:52.052Z,6.40
2019-05-07T00:34:22.522Z,6.40
2019-05-07T00:37:06.974Z,6.40
2019-05-07T00:39:46.228Z,6.30
2019-05-07T00:42:22.256Z,6.30
2019-05-07T00:44:53.195Z,6.30
2019-05-07T00:47:22.228Z,6.30
2019-05-07T00:49:52.274Z,6.20
2019-05-07T00:52:22.554Z,6.20
2019-05-07T00:54:53.091Z,6.20
2019-05-07T00:57:22.895Z,6.20
2019-05-07T00:59:52.477Z,6.20
2019-05-07T01:02:22.779Z,6.20
2019-05-07T01:04:53.196Z,6.10
2019-05-07T01:07:22.865Z,6.00
2019-05-07T01:09:52.385Z,6.00
2019-05-07T01:12:22.196Z,5.90
2019-05-07T01:14:52.787Z,5.90
2019-05-07T01:17:22.759Z,5.90
2019-05-07T01:19:53.285Z,5.80
2019-05-07T01:22:22.456Z,5.70
2019-05-07T01:24:52.548Z,5.70
2019-05-07T01:27:22.673Z,5.60
2019-05-07T01:29:52.839Z,5.50
2019-05-07T01:32:32.964Z,5.50
2019-05-07T01:35:09.741Z,5.40
2019-05-07T01:37:38.660Z,5.30
2019-05-07T01:40:07.159Z,5.30
2019-05-07T01:42:36.746Z,5.30
2019-05-07T01:45:06.923Z,5.20
2019-05-07T01:47:35.363Z,5.10
2019-05-07T01:50:04.438Z,5.10
2019-05-07T01:52:33.234Z,5.00
2019-05-07T01:55:03.197Z,5.00
2019-05-07T01:57:32.563Z,5.00
2019-05-07T02:00:02.577Z,4.90
2019-05-07T02:02:33.694Z,4.90
2019-05-07T02:05:03.911Z,4.80
2019-05-07T02:07:34.110Z,4.80
2019-05-07T02:10:07.627Z,4.70
2019-05-07T02:12:37.495Z,4.70
2019-05-07T02:15:09.307Z,4.70
2019-05-07T02:17:38.151Z,4.70
2019-05-07T02:20:08.019Z,4.60
2019-05-07T02:22:37.439Z,4.60
2019-05-07T02:25:07.308Z,4.50
2019-05-07T02:27:36.212Z,4.50
2019-05-07T02:30:06.610Z,4.40
2019-05-07T02:32:35.360Z,4.40
2019-05-07T02:35:05.862Z,4.50
2019-05-07T02:37:48.547Z,4.40
2019-05-07T02:40:22.937Z,4.30
2019-05-07T02:42:54.041Z,4.30
2019-05-07T02:45:24.253Z,4.30
2019-05-07T02:47:55.915Z,4.20
2019-05-07T02:50:38.171Z,4.20
2019-05-07T02:53:08.462Z,4.20
2019-05-07T02:55:43.497Z,4.20
2019-05-07T02:58:13.725Z,4.20
2019-05-07T03:00:43.461Z,4.20
2019-05-07T03:03:13.798Z,4.30
2019-05-07T03:05:43.412Z,4.40
2019-05-07T03:08:13.710Z,4.50
2019-05-07T03:10:43.408Z,4.50
2019-05-07T03:13:14.003Z,4.50
2019-05-07T03:15:43.489Z,4.40
2019-05-07T03:18:13.847Z,4.40
2019-05-07T03:20:44.605Z,4.40
2019-05-07T03:23:14.700Z,4.40
2019-05-07T03:25:59.934Z,4.40
2019-05-07T03:28:28.440Z,4.40
2019-05-07T03:30:58.520Z,4.40
2019-05-07T03:33:37.343Z,4.30
2019-05-07T03:36:08.124Z,4.30
2019-05-07T03:38:37.911Z,4.20
2019-05-07T03:41:06.678Z,4.20
2019-05-07T03:43:35.134Z,4.10
2019-05-07T03:46:05.380Z,4.10
2019-05-07T03:48:35.467Z,4.00
2019-05-07T03:51:04.020Z,3.90
2019-05-07T03:53:33.793Z,3.90
2019-05-07T03:56:04.148Z,3.90
2019-05-07T03:58:34.305Z,3.90
2019-05-07T04:01:04.485Z,3.80
2019-05-07T04:03:34.726Z,3.80
2019-05-07T04:06:04.083Z,3.80
2019-05-07T04:08:33.642Z,3.70
2019-05-07T04:11:03.948Z,3.70
2019-05-07T04:13:33.791Z,3.70
2019-05-07T04:16:04.991Z,3.60
2019-05-07T04:18:34.392Z,3.60
2019-05-07T04:21:04.205Z,3.60
2019-05-07T04:23:34.182Z,3.60
2019-05-07T04:26:13.111Z,3.60
2019-05-07T04:28:54.387Z,3.60
2019-05-07T04:31:24.779Z,3.60
2019-05-07T04:33:54.148Z,3.60
2019-05-07T04:36:24.228Z,3.70
2019-05-07T04:38:53.255Z,3.70
2019-05-07T04:41:23.302Z,3.70
2019-05-07T04:43:54.099Z,3.80
2019-05-07T04:46:23.511Z,3.90
2019-05-07T04:48:53.012Z,3.90
2019-05-07T04:51:23.476Z,4.00
2019-05-07T04:53:54.154Z,4.10
2019-05-07T04:56:23.802Z,4.10
2019-05-07T04:58:53.090Z,4.20
2019-05-07T05:01:23.749Z,4.20
2019-05-07T05:03:54.091Z,4.30
2019-05-07T05:06:24.186Z,4.40
2019-05-07T05:08:56.081Z,4.40
2019-05-07T05:11:23.847Z,4.60
2019-05-07T05:13:53.319Z,4.70
2019-05-07T05:16:28.203Z,4.70
2019-05-07T05:18:57.476Z,4.80
2019-05-07T05:21:32.278Z,4.90
2019-05-07T05:24:05.756Z,4.90
2019-05-07T05:26:34.210Z,5.00
2019-05-07T05:29:02.739Z,5.10
2019-05-07T05:31:33.015Z,5.30
2019-05-07T05:34:02.173Z,5.30
2019-05-07T05:36:33.022Z,5.40
2019-05-07T05:39:02.522Z,5.50
2019-05-07T05:41:34.102Z,5.60
2019-05-07T05:44:20.162Z,5.60
2019-05-07T05:46:48.619Z,5.80
2019-05-07T05:49:17.070Z,5.90
2019-05-07T05:51:59.355Z,6.00
2019-05-07T05:54:32.415Z,6.10
2019-05-07T05:57:07.866Z,6.20
2019-05-07T05:59:48.965Z,6.40
2019-05-07T06:02:25.178Z,6.50
2019-05-07T06:05:12.589Z,6.60
2019-05-07T06:07:43.061Z,6.70
2019-05-07T06:10:19.544Z,6.70
2019-05-07T06:13:04.564Z,6.80
2019-05-07T06:15:34.935Z,6.80
2019-05-07T06:18:21.027Z,6.80
2019-05-07T06:20:45.799Z,6.80
2019-05-07T06:23:22.630Z,6.90
2019-05-07T06:25:52.388Z,6.90
2019-05-07T06:28:22.411Z,6.90
2019-05-07T06:30:52.694Z,7.00
2019-05-07T06:33:22.931Z,7.10
2019-05-07T06:35:52.187Z,7.20
2019-05-07T06:38:22.049Z,7.30
2019-05-07T06:41:09.128Z,7.40
2019-05-07T06:43:55.431Z,7.50
2019-05-07T06:46:23.980Z,7.50
2019-05-07T06:48:52.800Z,7.60
2019-05-07T06:51:22.112Z,7.60
2019-05-07T06:53:51.878Z,7.60
2019-05-07T06:56:22.891Z,7.70
2019-05-07T06:58:55.041Z,7.80
2019-05-07T07:01:25.402Z,7.80
2019-05-07T07:03:55.637Z,7.90
2019-05-07T07:06:25.741Z,7.90
2019-05-07T07:08:55.846Z,8.00
2019-05-07T07:11:28.968Z,7.90
2019-05-07T07:13:56.747Z,8.00
2019-05-07T07:16:25.475Z,8.00
2019-05-07T07:18:55.752Z,7.90
2019-05-07T07:21:24.086Z,8.10
2019-05-07T07:23:52.799Z,8.20
2019-05-07T07:26:22.099Z,8.30
2019-05-07T07:28:52.487Z,8.50
2019-05-07T07:31:28.453Z,8.50
2019-05-07T07:33:58.679Z,8.50
2019-05-07T07:36:29.110Z,8.50
2019-05-07T07:38:57.636Z,8.70
2019-05-07T07:41:34.188Z,8.90
2019-05-07T07:44:02.723Z,9.00
2019-05-07T07:46:33.018Z,9.20
2019-05-07T07:49:07.964Z,9.50
2019-05-07T07:51:40.840Z,9.70
2019-05-07T07:54:02.603Z,9.90
2019-05-07T07:56:47.840Z,10.10
2019-05-07T07:59:08.205Z,10.30
2019-05-07T08:01:44.240Z,10.50
2019-05-07T08:04:13.190Z,10.50
2019-05-07T08:06:42.167Z,10.80
2019-05-07T08:09:13.003Z,10.90
2019-05-07T08:11:42.572Z,11.10
2019-05-07T08:14:13.324Z,11.20
2019-05-07T08:16:42.901Z,11.30
2019-05-07T08:19:19.358Z,11.40
2019-05-07T08:21:42.288Z,11.50
2019-05-07T08:24:12.193Z,11.60
2019-05-07T08:26:42.873Z,11.50
2019-05-07T08:29:11.941Z,11.60
2019-05-07T08:31:57.367Z,11.70
2019-05-07T08:34:27.735Z,11.80
2019-05-07T08:36:56.560Z,11.60
2019-05-07T08:39:25.323Z,11.10
2019-05-07T08:41:53.841Z,10.90
2019-05-07T08:44:33.265Z,10.60
2019-05-07T08:47:09.523Z,10.30
2019-05-07T08:49:41.143Z,10.20
2019-05-07T08:52:11.993Z,10.40
2019-05-07T08:54:42.624Z,10.60
2019-05-07T08:57:12.157Z,10.80
2019-05-07T08:59:43.703Z,11.10
2019-05-07T09:02:12.553Z,11.20
2019-05-07T09:04:41.792Z,11.30
2019-05-07T09:07:12.827Z,11.40
2019-05-07T09:09:42.746Z,11.50
2019-05-07T09:12:12.438Z,11.30
2019-05-07T09:14:42.545Z,11.50
2019-05-07T09:17:12.806Z,11.70
2019-05-07T09:19:50.698Z,12.20
2019-05-07T09:22:12.822Z,12.40
2019-05-07T09:24:42.417Z,12.40
2019-05-07T09:27:13.149Z,12.40
2019-05-07T09:29:52.500Z,12.20
2019-05-07T09:32:25.404Z,12.20
2019-05-07T09:34:58.200Z,11.80
2019-05-07T09:37:28.514Z,11.70
2019-05-07T09:39:57.061Z,11.70
2019-05-07T09:42:25.830Z,11.60
2019-05-07T09:44:54.299Z,11.70
2019-05-07T09:47:23.216Z,11.80
2019-05-07T09:50:04.021Z,12.10
2019-05-07T09:52:22.862Z,12.50
2019-05-07T09:54:52.325Z,13.00
2019-05-07T09:57:30.252Z,13.60
2019-05-07T09:59:53.133Z,14.10
2019-05-07T10:02:22.656Z,14.40
2019-05-07T10:04:52.591Z,14.60
2019-05-07T10:07:22.394Z,14.60
2019-05-07T10:09:52.345Z,14.30
2019-05-07T10:12:28.730Z,14.10
2019-05-07T10:14:57.664Z,13.90
2019-05-07T10:17:27.742Z,13.70
2019-05-07T10:19:56.196Z,13.70
2019-05-07T10:22:25.064Z,13.70
2019-05-07T10:24:53.958Z,13.70
2019-05-07T10:27:22.475Z,13.60
2019-05-07T10:29:53.015Z,13.50
2019-05-07T10:32:21.710Z,13.60
2019-05-07T10:34:52.376Z,13.70
2019-05-07T10:37:20.390Z,13.90
2019-05-07T10:39:49.036Z,13.90
2019-05-07T10:42:17.571Z,13.70
2019-05-07T10:44:53.908Z,13.40
2019-05-07T10:47:24.008Z,13.10
2019-05-07T10:50:11.836Z,12.90
2019-05-07T10:52:42.501Z,12.70
2019-05-07T10:55:12.106Z,12.30
2019-05-07T10:57:42.249Z,12.30
2019-05-07T11:00:14.525Z,12.60
2019-05-07T11:02:42.979Z,12.80
2019-05-07T11:05:13.063Z,12.70
2019-05-07T11:07:42.335Z,12.70
2019-05-07T11:10:12.394Z,12.70
2019-05-07T11:12:42.517Z,12.70
2019-05-07T11:15:12.645Z,12.60
2019-05-07T11:18:02.705Z,12.90
2019-05-07T11:20:32.038Z,13.20
2019-05-07T11:23:02.607Z,13.40
2019-05-07T11:25:31.039Z,13.60
2019-05-07T11:27:59.487Z,13.90
2019-05-07T11:30:28.026Z,14.10
2019-05-07T11:32:56.481Z,14.10
2019-05-07T11:35:24.936Z,14.20
2019-05-07T11:37:53.395Z,14.10
2019-05-07T11:40:23.050Z,14.30
2019-05-07T11:43:07.005Z,14.30
2019-05-07T11:45:46.443Z,14.40
2019-05-07T11:48:15.623Z,14.20
2019-05-07T11:51:00.458Z,13.80
2019-05-07T11:53:22.056Z,13.80
2019-05-07T11:55:52.364Z,13.90
2019-05-07T11:58:22.014Z,13.90
2019-05-07T12:00:52.531Z,14.00
2019-05-07T12:03:22.120Z,14.20
2019-05-07T12:05:52.530Z,14.30
2019-05-07T12:08:23.695Z,14.20
2019-05-07T12:10:51.817Z,14.70
2019-05-07T12:13:21.835Z,15.00
2019-05-07T12:15:52.234Z,15.20
2019-05-07T12:18:22.537Z,15.40
2019-05-07T12:20:53.872Z,15.50
2019-05-07T12:23:22.651Z,15.50
2019-05-07T12:25:54.448Z,15.30
2019-05-07T12:28:23.259Z,15.30
2019-05-07T12:30:59.086Z,15.10
2019-05-07T12:33:32.347Z,14.90
2019-05-07T12:36:03.786Z,14.80
2019-05-07T12:38:32.462Z,14.90
2019-05-07T12:41:02.596Z,15.00
2019-05-07T12:43:31.939Z,14.90
2019-05-07T12:46:02.719Z,14.90
2019-05-07T12:48:30.908Z,15.00
2019-05-07T12:50:59.357Z,15.10
2019-05-07T12:53:29.438Z,15.10
2019-05-07T12:56:02.760Z,15.30
2019-05-07T12:58:32.924Z,15.50
2019-05-07T13:01:06.217Z,15.30
2019-05-07T13:03:38.978Z,15.40
2019-05-07T13:06:07.419Z,15.50
2019-05-07T13:08:36.126Z,15.60
2019-05-07T13:11:05.029Z,15.30
2019-05-07T13:13:33.724Z,15.30
2019-05-07T13:16:02.968Z,15.40
2019-05-07T13:18:32.244Z,15.40
2019-05-07T13:21:02.408Z,15.30
2019-05-07T13:23:32.400Z,15.30
2019-05-07T13:26:02.607Z,15.20
2019-05-07T13:28:31.361Z,14.90
2019-05-07T13:31:02.224Z,14.70
2019-05-07T13:33:34.487Z,14.40
2019-05-07T13:36:02.447Z,14.40
2019-05-07T13:38:33.463Z,14.30
2019-05-07T13:41:03.661Z,14.30
2019-05-07T13:43:33.812Z,14.20
2019-05-07T13:46:12.121Z,13.80
2019-05-07T13:48:45.413Z,13.80
2019-05-07T13:51:12.723Z,13.80
2019-05-07T13:53:42.763Z,13.70
2019-05-07T13:56:12.828Z,13.30
2019-05-07T13:58:42.807Z,13.20
2019-05-07T14:01:29.236Z,13.30
2019-05-07T14:03:57.770Z,13.30
2019-05-07T14:06:38.423Z,13.40
2019-05-07T14:09:24.547Z,13.60
2019-05-07T14:11:53.070Z,13.80
2019-05-07T14:14:22.526Z,13.80
2019-05-07T14:16:53.063Z,13.80
2019-05-07T14:19:22.391Z,14.00
2019-05-07T14:21:52.523Z,14.10
2019-05-07T14:24:22.403Z,14.30
2019-05-07T14:26:52.865Z,14.70
2019-05-07T14:29:24.376Z,15.10
2019-05-07T14:31:53.707Z,15.30
2019-05-07T14:34:34.888Z,15.50
2019-05-07T14:37:04.705Z,15.50
2019-05-07T14:39:33.567Z,15.30
2019-05-07T14:42:03.678Z,15.10
2019-05-07T14:44:48.027Z,14.90
2019-05-07T14:47:18.271Z,14.90
2019-05-07T14:49:47.650Z,14.90
2019-05-07T14:52:29.015Z,15.20
2019-05-07T14:54:46.355Z,15.50
2019-05-07T14:57:15.188Z,15.70
2019-05-07T14:59:43.774Z,15.90
2019-05-07T15:02:12.721Z,16.00
2019-05-07T15:04:41.923Z,15.50
2019-05-07T15:07:11.967Z,15.30
2019-05-07T15:09:42.388Z,14.90
2019-05-07T15:12:12.456Z,14.40
2019-05-07T15:14:42.129Z,14.30
2019-05-07T15:17:24.720Z,14.20
2019-05-07T15:19:54.639Z,14.30
2019-05-07T15:22:46.087Z,14.20
2019-05-07T15:25:05.332Z,14.20
2019-05-07T15:27:34.447Z,14.30
2019-05-07T15:30:03.762Z,14.30
2019-05-07T15:32:32.413Z,14.20
2019-05-07T15:35:02.212Z,14.30
2019-05-07T15:37:32.195Z,14.20
2019-05-07T15:40:02.496Z,14.20
2019-05-07T15:42:32.790Z,14.40
2019-05-07T15:45:02.343Z,14.40
2019-05-07T15:47:42.121Z,14.20
2019-05-07T15:50:12.463Z,14.00
2019-05-07T15:52:42.491Z,14.10
2019-05-07T15:55:11.926Z,14.30
2019-05-07T15:57:42.665Z,14.40
2019-05-07T16:00:19.208Z,15.00
2019-05-07T16:02:55.280Z,15.70
2019-05-07T16:05:24.055Z,16.50
2019-05-07T16:07:53.223Z,17.30
2019-05-07T16:10:23.275Z,17.90
2019-05-07T16:12:53.188Z,18.10
2019-05-07T16:15:26.032Z,18.00
2019-05-07T16:18:02.927Z,17.70
2019-05-07T16:20:32.585Z,17.60
2019-05-07T16:23:14.458Z,17.20
2019-05-07T16:25:32.953Z,17.10
2019-05-07T16:28:02.082Z,17.10
2019-05-07T16:30:32.366Z,16.80
2019-05-07T16:33:02.303Z,16.60
2019-05-07T16:35:31.980Z,16.00
2019-05-07T16:38:00.827Z,15.70
2019-05-07T16:40:29.525Z,15.20
2019-05-07T16:42:58.055Z,15.00
2019-05-07T16:45:26.605Z,15.00
2019-05-07T16:47:55.311Z,15.10
2019-05-07T16:50:23.828Z,15.50
2019-05-07T16:52:52.577Z,15.90
2019-05-07T16:55:23.481Z,16.40
2019-05-07T16:58:06.169Z,17.00
2019-05-07T17:00:36.508Z,17.40
2019-05-07T17:03:07.124Z,17.30
2019-05-07T17:05:35.856Z,17.20
2019-05-07T17:08:05.944Z,17.60
2019-05-07T17:10:34.475Z,17.90
2019-05-07T17:13:02.983Z,18.00
2019-05-07T17:15:33.231Z,18.10
2019-05-07T17:18:02.844Z,18.10
2019-05-07T17:20:32.797Z,17.80
2019-05-07T17:23:02.994Z,17.80
2019-05-07T17:25:37.659Z,17.40
2019-05-07T17:28:07.577Z,17.20
2019-05-07T17:30:37.683Z,17.00
2019-05-07T17:33:06.778Z,16.80
2019-05-07T17:35:35.353Z,16.60
2019-05-07T17:38:08.951Z,16.40
2019-05-07T17:40:34.040Z,16.10
2019-05-07T17:43:03.219Z,15.90
2019-05-07T17:45:32.412Z,15.70
2019-05-07T17:48:03.136Z,15.50
2019-05-07T17:50:37.751Z,15.30
2019-05-07T17:53:06.446Z,15.10
2019-05-07T17:55:35.272Z,14.80
2019-05-07T17:58:04.119Z,14.50
2019-05-07T18:00:33.145Z,14.20
2019-05-07T18:03:09.146Z,14.00
2019-05-07T18:05:37.983Z,13.80
2019-05-07T18:08:06.504Z,13.60
2019-05-07T18:10:34.963Z,13.30
2019-05-07T18:13:03.670Z,13.10
2019-05-07T18:15:32.297Z,12.80
2019-05-07T18:18:03.111Z,12.60
2019-05-07T18:20:32.828Z,12.60
2019-05-07T18:23:02.695Z,12.40
2019-05-07T18:25:32.430Z,12.30
2019-05-07T18:28:01.849Z,12.30
2019-05-07T18:30:32.554Z,12.20
2019-05-07T18:33:02.654Z,12.10
2019-05-07T18:35:32.161Z,12.10
2019-05-07T18:38:02.478Z,12.00
2019-05-07T18:40:31.083Z,12.00
2019-05-07T18:42:59.523Z,12.00
2019-05-07T18:45:27.978Z,12.00
2019-05-07T18:47:56.681Z,11.90
2019-05-07T18:50:25.149Z,11.80
2019-05-07T18:52:53.868Z,11.70
2019-05-07T18:55:22.816Z,11.60
2019-05-07T18:57:51.894Z,11.50
2019-05-07T19:00:25.154Z,11.40
2019-05-07T19:02:52.820Z,11.30
2019-05-07T19:05:22.289Z,11.20
2019-05-07T19:08:03.837Z,11.10
2019-05-07T19:10:22.013Z,10.90
2019-05-07T19:12:52.765Z,10.80
2019-05-07T19:15:22.717Z,10.70
2019-05-07T19:17:51.246Z,10.60
2019-05-07T19:20:21.695Z,10.50
2019-05-07T19:22:51.847Z,10.30
2019-05-07T19:25:20.429Z,10.20
2019-05-07T19:27:49.514Z,10.10
2019-05-07T19:30:18.455Z,9.90
2019-05-07T19:32:47.183Z,9.80
2019-05-07T19:35:15.868Z,9.70
2019-05-07T19:37:44.656Z,9.60
2019-05-07T19:40:13.328Z,9.40
2019-05-07T19:42:42.853Z,9.40
2019-05-07T19:45:12.793Z,9.20
2019-05-07T19:47:42.800Z,9.10
2019-05-07T19:50:12.601Z,9.10
2019-05-07T19:52:42.639Z,9.10
2019-05-07T19:55:11.335Z,9.10
2019-05-07T19:57:53.963Z,9.00
2019-05-07T20:00:23.983Z,9.00
2019-05-07T20:02:54.231Z,8.90
2019-05-07T20:05:23.050Z,8.90
2019-05-07T20:07:55.575Z,8.80
2019-05-07T20:10:23.639Z,8.80
2019-05-07T20:12:52.274Z,8.70
2019-05-07T20:15:22.378Z,8.60
2019-05-07T20:17:52.607Z,8.40
2019-05-07T20:20:22.178Z,8.30
2019-05-07T20:22:51.853Z,8.20
2019-05-07T20:25:22.506Z,8.10
2019-05-07T20:27:52.700Z,8.00
2019-05-07T20:30:22.858Z,7.90
2019-05-07T20:32:52.340Z,7.90
2019-05-07T20:35:21.012Z,7.80
2019-05-07T20:37:49.705Z,7.70
2019-05-07T20:40:18.180Z,7.70
2019-05-07T20:42:48.824Z,7.60
2019-05-07T20:45:17.604Z,7.60
2019-05-07T20:47:46.052Z,7.50
2019-05-07T20:50:15.115Z,7.50
2019-05-07T20:52:43.651Z,7.40
2019-05-07T20:55:21.070Z,7.30
2019-05-07T20:57:45.628Z,7.30
2019-05-07T21:00:17.659Z,7.20
2019-05-07T21:02:48.333Z,7.20
2019-05-07T21:05:16.833Z,7.20
2019-05-07T21:07:45.600Z,7.10
2019-05-07T21:10:14.142Z,7.10
2019-05-07T21:12:42.656Z,7.00
2019-05-07T21:15:12.377Z,7.00
2019-05-07T21:17:42.882Z,7.00
2019-05-07T21:20:12.090Z,7.00
2019-05-07T21:22:42.536Z,6.90
2019-05-07T21:25:12.000Z,6.90
2019-05-07T21:27:43.057Z,6.80
2019-05-07T21:30:13.094Z,6.70
2019-05-07T21:32:42.133Z,6.70
2019-05-07T21:35:11.430Z,6.60
2019-05-07T21:37:41.815Z,6.70
2019-05-07T21:40:10.431Z,6.60
2019-05-07T21:42:38.867Z,6.60
2019-05-07T21:45:07.449Z,6.50
2019-05-07T21:47:35.899Z,6.40
2019-05-07T21:50:08.464Z,6.40
2019-05-07T21:52:39.524Z,6.20
2019-05-07T21:55:22.455Z,6.20
2019-05-07T21:57:54.580Z,6.20
2019-05-07T22:00:25.376Z,6.10
2019-05-07T22:02:55.505Z,6.00
2019-05-07T22:05:24.200Z,6.00
2019-05-07T22:07:54.419Z,5.90
2019-05-07T22:10:22.967Z,5.80
2019-05-07T22:12:52.031Z,5.80
2019-05-07T22:15:22.458Z,5.70
2019-05-07T22:17:52.094Z,5.70
2019-05-07T22:20:20.655Z,5.60
2019-05-07T22:22:49.112Z,5.60
2019-05-07T22:25:17.551Z,5.60
2019-05-07T22:27:46.274Z,5.60
2019-05-07T22:30:16.491Z,5.50
2019-05-07T22:32:46.576Z,5.40
2019-05-07T22:35:25.623Z,5.40
2019-05-07T22:37:54.116Z,5.40
2019-05-07T22:40:22.673Z,5.30
2019-05-07T22:42:51.116Z,5.30
2019-05-07T22:45:19.549Z,5.20
2019-05-07T22:47:48.235Z,5.30
2019-05-07T22:50:16.968Z,5.30
2019-05-07T22:52:45.638Z,5.30
2019-05-07T22:55:14.268Z,5.20
2019-05-07T22:58:01.195Z,5.20
2019-05-07T23:00:32.143Z,5.20
2019-05-07T23:03:02.699Z,5.20
2019-05-07T23:05:32.390Z,5.20
2019-05-07T23:08:02.377Z,5.10
2019-05-07T23:10:33.090Z,5.10
2019-05-07T23:13:02.297Z,5.10
2019-05-07T23:15:32.154Z,5.00
2019-05-07T23:18:04.184Z,5.00
2019-05-07T23:20:32.065Z,5.00
2019-05-07T23:23:01.175Z,5.00
2019-05-07T23:25:32.074Z,5.00
2019-05-07T23:28:04.912Z,4.90
2019-05-07T23:30:32.945Z,4.90
2019-05-07T23:33:02.417Z,4.90
2019-05-07T23:35:32.867Z,4.90
2019-05-07T23:38:02.468Z,4.90
2019-05-07T23:40:35.355Z,4.80
2019-05-07T23:43:12.246Z,4.80
2019-05-07T23:45:42.026Z,4.80
2019-05-07T23:48:12.333Z,4.80
2019-05-07T23:50:41.891Z,4.70
2019-05-07T23:53:12.762Z,4.70
2019-05-07T23:55:42.443Z,4.70
2019-05-07T23:58:13.869Z,4.70
